sensor_id;sensor_type;location;lat;lon;timestamp;pressure;altitude;pressure_sealevel;temperature;humidity
61682;BME280;47577;43.610;25.010;2023-03-01T00:01:04;101466.06;;;5.43;94.22
61682;BME280;47577;43.610;25.010;2023-03-01T00:03:30;101465.22;;;5.50;93.80
61682;BME280;47577;43.610;25.010;2023-03-01T00:05:56;101466.09;;;5.48;93.73
61682;BME280;47577;43.610;25.010;2023-03-01T00:08:22;101466.09;;;5.48;92.94
61682;BME280;47577;43.610;25.010;2023-03-01T00:10:47;101464.31;;;5.36;94.11
61682;BME280;47577;43.610;25.010;2023-03-01T00:13:13;101463.44;;;5.43;93.86
61682;BME280;47577;43.610;25.010;2023-03-01T00:15:39;101460.81;;;5.43;93.63
61682;BME280;47577;43.610;25.010;2023-03-01T00:18:05;101454.66;;;5.46;93.84
61682;BME280;47577;43.610;25.010;2023-03-01T00:20:31;101459.94;;;5.49;94.04
61682;BME280;47577;43.610;25.010;2023-03-01T00:22:56;101457.28;;;5.49;93.96
61682;BME280;47577;43.610;25.010;2023-03-01T00:25:22;101452.03;;;5.52;93.95
61682;BME280;47577;43.610;25.010;2023-03-01T00:27:47;101452.03;;;5.52;93.18
61682;BME280;47577;43.610;25.010;2023-03-01T00:30:14;101459.97;;;5.57;93.92
61682;BME280;47577;43.610;25.010;2023-03-01T00:32:39;101453.81;;;5.53;92.60
61682;BME280;47577;43.610;25.010;2023-03-01T00:35:05;101449.34;;;5.37;94.17
61682;BME280;47577;43.610;25.010;2023-03-01T00:37:30;101447.56;;;5.32;94.23
61682;BME280;47577;43.610;25.010;2023-03-01T00:39:56;101446.72;;;5.37;94.34
61682;BME280;47577;43.610;25.010;2023-03-01T00:42:21;101447.59;;;5.39;93.87
61682;BME280;47577;43.610;25.010;2023-03-01T00:44:47;101433.56;;;5.44;93.93
61682;BME280;47577;43.610;25.010;2023-03-01T00:47:12;101435.28;;;5.39;94.46
61682;BME280;47577;43.610;25.010;2023-03-01T00:49:39;101435.28;;;5.42;93.56
61682;BME280;47577;43.610;25.010;2023-03-01T00:52:04;101428.25;;;5.37;94.45
61682;BME280;47577;43.610;25.010;2023-03-01T00:54:29;101422.09;;;5.33;94.04
61682;BME280;47577;43.610;25.010;2023-03-01T00:56:55;101415.94;;;5.37;94.77
61682;BME280;47577;43.610;25.010;2023-03-01T00:59:20;101413.28;;;5.37;94.17
61682;BME280;47577;43.610;25.010;2023-03-01T01:01:46;101407.09;;;5.24;94.47
61682;BME280;47577;43.610;25.010;2023-03-01T01:04:12;101391.31;;;5.34;94.35
61682;BME280;47577;43.610;25.010;2023-03-01T01:06:39;101395.59;;;5.11;94.47
61682;BME280;47577;43.610;25.010;2023-03-01T01:09:07;101395.59;;;5.13;95.54
61682;BME280;47577;43.610;25.010;2023-03-01T01:11:33;101405.31;;;5.17;95.35
61682;BME280;47577;43.610;25.010;2023-03-01T01:14:00;101392.97;;;5.15;95.23
61682;BME280;47577;43.610;25.010;2023-03-01T01:16:26;101399.13;;;5.18;95.06
61682;BME280;47577;43.610;25.010;2023-03-01T01:18:53;101395.63;;;5.15;95.40
61682;BME280;47577;43.610;25.010;2023-03-01T01:21:19;101385.94;;;5.09;94.94
61682;BME280;47577;43.610;25.010;2023-03-01T01:23:45;101392.06;;;5.05;95.59
61682;BME280;47577;43.610;25.010;2023-03-01T01:26:13;101384.13;;;5.02;95.97
61682;BME280;47577;43.610;25.010;2023-03-01T01:28:39;101380.59;;;4.97;96.44
61682;BME280;47577;43.610;25.010;2023-03-01T01:31:05;101390.28;;;4.99;96.95
61682;BME280;47577;43.610;25.010;2023-03-01T01:33:30;101383.28;;;5.04;96.69
61682;BME280;47577;43.610;25.010;2023-03-01T01:35:56;101372.72;;;5.00;96.52
61682;BME280;47577;43.610;25.010;2023-03-01T01:38:21;101366.59;;;5.02;95.50
61682;BME280;47577;43.610;25.010;2023-03-01T01:40:47;101360.38;;;4.97;96.55
61682;BME280;47577;43.610;25.010;2023-03-01T01:43:23;101373.59;;;5.05;95.26
61682;BME280;47577;43.610;25.010;2023-03-01T01:45:49;101367.41;;;4.95;96.56
61682;BME280;47577;43.610;25.010;2023-03-01T01:48:24;101364.75;;;4.92;95.68
61682;BME280;47577;43.610;25.010;2023-03-01T01:51:05;101369.19;;;4.96;96.26
61682;BME280;47577;43.610;25.010;2023-03-01T01:53:32;101364.81;;;5.00;96.00
61682;BME280;47577;43.610;25.010;2023-03-01T01:55:58;101381.44;;;4.88;96.01
61682;BME280;47577;43.610;25.010;2023-03-01T01:58:27;101372.66;;;4.90;96.60
61682;BME280;47577;43.610;25.010;2023-03-01T02:00:54;101368.31;;;4.94;95.69
61682;BME280;47577;43.610;25.010;2023-03-01T02:03:24;101368.28;;;4.92;95.84
61682;BME280;47577;43.610;25.010;2023-03-01T02:08:20;101370.94;;;4.92;95.42
61682;BME280;47577;43.610;25.010;2023-03-01T02:10:49;101356.00;;;4.93;95.33
61682;BME280;47577;43.610;25.010;2023-03-01T02:13:15;101363.00;;;4.86;95.82
61682;BME280;47577;43.610;25.010;2023-03-01T02:15:40;101367.38;;;4.87;95.61
61682;BME280;47577;43.610;25.010;2023-03-01T02:18:09;101364.69;;;4.76;96.27
61682;BME280;47577;43.610;25.010;2023-03-01T02:20:39;101357.72;;;4.85;95.75
61682;BME280;47577;43.610;25.010;2023-03-01T02:23:10;101369.19;;;4.94;95.86
61682;BME280;47577;43.610;25.010;2023-03-01T02:30:29;101370.00;;;4.89;95.35
61682;BME280;47577;43.610;25.010;2023-03-01T02:32:56;101371.78;;;4.88;95.52
61682;BME280;47577;43.610;25.010;2023-03-01T02:35:29;101370.94;;;4.91;95.36
61682;BME280;47577;43.610;25.010;2023-03-01T02:37:55;101368.28;;;4.97;95.11
61682;BME280;47577;43.610;25.010;2023-03-01T02:40:25;101378.81;;;4.88;95.54
61682;BME280;47577;43.610;25.010;2023-03-01T02:42:53;101377.03;;;4.85;95.38
61682;BME280;47577;43.610;25.010;2023-03-01T02:45:19;101375.28;;;4.83;95.28
61682;BME280;47577;43.610;25.010;2023-03-01T02:47:45;101377.81;;;4.69;95.83
61682;BME280;47577;43.610;25.010;2023-03-01T02:50:43;101382.19;;;4.64;96.02
61682;BME280;47577;43.610;25.010;2023-03-01T02:53:08;101376.97;;;4.71;95.67
61682;BME280;47577;43.610;25.010;2023-03-01T02:55:35;101372.59;;;4.73;96.46
61682;BME280;47577;43.610;25.010;2023-03-01T02:58:02;101368.16;;;4.71;95.71
61682;BME280;47577;43.610;25.010;2023-03-01T03:00:28;101363.78;;;4.68;95.70
61682;BME280;47577;43.610;25.010;2023-03-01T03:02:56;101366.44;;;4.76;95.61
61682;BME280;47577;43.610;25.010;2023-03-01T03:05:25;101361.13;;;4.65;95.90
61682;BME280;47577;43.610;25.010;2023-03-01T03:07:51;101361.13;;;4.73;95.51
61682;BME280;47577;43.610;25.010;2023-03-01T03:10:21;101361.16;;;4.78;95.39
61682;BME280;47577;43.610;25.010;2023-03-01T03:12:54;101362.97;;;4.83;95.82
61682;BME280;47577;43.610;25.010;2023-03-01T03:15:20;101366.50;;;4.85;95.81
61682;BME280;47577;43.610;25.010;2023-03-01T03:17:46;101360.38;;;4.88;94.87
61682;BME280;47577;43.610;25.010;2023-03-01T03:20:12;101362.13;;;4.90;95.30
61682;BME280;47577;43.610;25.010;2023-03-01T03:22:38;101369.16;;;4.90;94.20
61682;BME280;47577;43.610;25.010;2023-03-01T03:25:05;101359.47;;;4.87;94.45
61682;BME280;47577;43.610;25.010;2023-03-01T03:27:30;101360.28;;;4.75;94.88
61682;BME280;47577;43.610;25.010;2023-03-01T03:29:57;101365.63;;;4.85;94.55
61682;BME280;47577;43.610;25.010;2023-03-01T03:32:22;101369.06;;;4.76;94.76
61682;BME280;47577;43.610;25.010;2023-03-01T03:34:47;101376.03;;;4.66;96.19
61682;BME280;47577;43.610;25.010;2023-03-01T03:37:14;101373.47;;;4.75;95.42
61682;BME280;47577;43.610;25.010;2023-03-01T03:39:59;101370.81;;;4.74;95.27
61682;BME280;47577;43.610;25.010;2023-03-01T03:42:25;101371.72;;;4.81;95.35
61682;BME280;47577;43.610;25.010;2023-03-01T03:44:50;101370.84;;;4.79;95.28
61682;BME280;47577;43.610;25.010;2023-03-01T03:47:15;101361.13;;;4.73;95.50
61682;BME280;47577;43.610;25.010;2023-03-01T03:49:41;101363.75;;;4.65;95.97
61682;BME280;47577;43.610;25.010;2023-03-01T03:52:06;101363.75;;;4.65;96.23
61682;BME280;47577;43.610;25.010;2023-03-01T03:54:39;101359.34;;;4.66;96.40
61682;BME280;47577;43.610;25.010;2023-03-01T03:57:05;101359.41;;;4.75;96.22
61682;BME280;47577;43.610;25.010;2023-03-01T03:59:31;101355.91;;;4.79;95.26
61682;BME280;47577;43.610;25.010;2023-03-01T04:01:56;101355.97;;;4.87;94.97
61682;BME280;47577;43.610;25.010;2023-03-01T04:04:22;101360.28;;;4.75;94.59
61682;BME280;47577;43.610;25.010;2023-03-01T04:06:47;101364.75;;;4.83;94.98
61682;BME280;47577;43.610;25.010;2023-03-01T04:09:13;101370.00;;;4.83;94.62
61682;BME280;47577;43.610;25.010;2023-03-01T04:11:39;101372.66;;;4.89;94.70
61682;BME280;47577;43.610;25.010;2023-03-01T04:14:04;101370.06;;;5.00;94.23
61682;BME280;47577;43.610;25.010;2023-03-01T04:16:29;101371.84;;;5.05;93.79
61682;BME280;47577;43.610;25.010;2023-03-01T04:18:55;101370.91;;;4.95;93.68
61682;BME280;47577;43.610;25.010;2023-03-01T04:21:21;101378.84;;;4.97;93.57
61682;BME280;47577;43.610;25.010;2023-03-01T04:23:46;101392.06;;;5.06;93.78
61682;BME280;47577;43.610;25.010;2023-03-01T04:26:12;101388.59;;;5.10;93.19
61682;BME280;47577;43.610;25.010;2023-03-01T04:28:38;101384.19;;;5.09;92.36
61682;BME280;47577;43.610;25.010;2023-03-01T04:31:12;101389.41;;;5.05;92.58
61682;BME280;47577;43.610;25.010;2023-03-01T04:33:59;101385.94;;;5.09;92.57
61682;BME280;47577;43.610;25.010;2023-03-01T04:36:26;101381.47;;;4.97;93.12
61682;BME280;47577;43.610;25.010;2023-03-01T04:38:51;101380.53;;;4.86;93.96
61682;BME280;47577;43.610;25.010;2023-03-01T04:41:18;101377.91;;;4.83;94.51
61682;BME280;47577;43.610;25.010;2023-03-01T04:43:43;101378.75;;;4.80;94.01
61682;BME280;47577;43.610;25.010;2023-03-01T04:46:10;101375.28;;;4.83;94.94
61682;BME280;47577;43.610;25.010;2023-03-01T04:48:36;101371.78;;;4.87;94.22
61682;BME280;47577;43.610;25.010;2023-03-01T04:51:02;101372.69;;;4.97;94.14
61682;BME280;47577;43.610;25.010;2023-03-01T04:53:28;101371.84;;;5.01;93.80
61682;BME280;47577;43.610;25.010;2023-03-01T04:55:57;101375.34;;;5.01;93.83
61682;BME280;47577;43.610;25.010;2023-03-01T04:58:23;101378.84;;;4.97;93.62
61682;BME280;47577;43.610;25.010;2023-03-01T05:00:49;101371.84;;;4.98;93.92
61682;BME280;47577;43.610;25.010;2023-03-01T05:03:14;101378.78;;;4.85;93.63
61682;BME280;47577;43.610;25.010;2023-03-01T05:05:43;101377.03;;;4.85;94.09
61682;BME280;47577;43.610;25.010;2023-03-01T05:08:09;101374.38;;;4.81;94.29
61682;BME280;47577;43.610;25.010;2023-03-01T05:10:42;101374.38;;;4.81;95.02
61682;BME280;47577;43.610;25.010;2023-03-01T05:13:08;101379.63;;;4.81;94.10
61682;BME280;47577;43.610;25.010;2023-03-01T05:15:33;101384.00;;;4.75;94.24
61682;BME280;47577;43.610;25.010;2023-03-01T05:17:59;101372.66;;;4.89;94.05
61682;BME280;47577;43.610;25.010;2023-03-01T05:20:28;101377.09;;;4.98;94.60
61682;BME280;47577;43.610;25.010;2023-03-01T05:22:56;101369.09;;;4.81;93.92
61682;BME280;47577;43.610;25.010;2023-03-01T05:25:21;101368.19;;;4.74;94.57
61682;BME280;47577;43.610;25.010;2023-03-01T05:27:47;101374.38;;;4.81;94.37
61682;BME280;47577;43.610;25.010;2023-03-01T05:30:13;101383.06;;;4.64;94.85
61682;BME280;47577;43.610;25.010;2023-03-01T05:32:42;101367.34;;;4.78;95.49
61682;BME280;47577;43.610;25.010;2023-03-01T05:35:09;101370.84;;;4.80;94.61
61682;BME280;47577;43.610;25.010;2023-03-01T05:37:39;101370.88;;;4.85;94.89
61682;BME280;47577;43.610;25.010;2023-03-01T05:40:04;101372.63;;;4.87;94.06
61682;BME280;47577;43.610;25.010;2023-03-01T05:42:30;101373.56;;;4.89;94.01
61682;BME280;47577;43.610;25.010;2023-03-01T05:44:56;101377.00;;;4.84;94.19
61682;BME280;47577;43.610;25.010;2023-03-01T05:47:21;101380.47;;;4.70;95.23
61682;BME280;47577;43.610;25.010;2023-03-01T05:49:47;101365.59;;;4.83;95.05
61682;BME280;47577;43.610;25.010;2023-03-01T05:52:15;101366.53;;;4.91;94.55
61682;BME280;47577;43.610;25.010;2023-03-01T05:54:40;101366.44;;;4.76;95.51
61682;BME280;47577;43.610;25.010;2023-03-01T05:57:06;101364.66;;;4.69;94.77
61682;BME280;47577;43.610;25.010;2023-03-01T05:59:31;101365.50;;;4.60;96.02
61682;BME280;47577;43.610;25.010;2023-03-01T06:01:57;101372.53;;;4.67;95.41
61682;BME280;47577;43.610;25.010;2023-03-01T06:04:22;101371.59;;;4.56;95.02
61682;BME280;47577;43.610;25.010;2023-03-01T06:06:47;101371.69;;;4.71;95.78
61682;BME280;47577;43.610;25.010;2023-03-01T06:09:13;101382.22;;;4.68;96.16
61682;BME280;47577;43.610;25.010;2023-03-01T06:11:39;101380.50;;;4.76;95.49
61682;BME280;47577;43.610;25.010;2023-03-01T06:14:05;101385.81;;;4.83;94.71
61682;BME280;47577;43.610;25.010;2023-03-01T06:16:31;101379.63;;;4.78;94.51
61682;BME280;47577;43.610;25.010;2023-03-01T06:18:56;101384.94;;;4.87;94.90
61682;BME280;47577;43.610;25.010;2023-03-01T06:21:22;101389.34;;;4.86;95.40
61682;BME280;47577;43.610;25.010;2023-03-01T06:23:47;101382.25;;;4.79;95.39
61682;BME280;47577;43.610;25.010;2023-03-01T06:26:16;101386.72;;;4.86;95.04
61682;BME280;47577;43.610;25.010;2023-03-01T06:28:41;101377.94;;;4.92;94.92
61682;BME280;47577;43.610;25.010;2023-03-01T06:31:07;101386.72;;;4.86;94.99
61682;BME280;47577;43.610;25.010;2023-03-01T06:33:34;101381.50;;;5.00;95.09
61682;BME280;47577;43.610;25.010;2023-03-01T06:36:01;101387.63;;;4.94;95.41
61682;BME280;47577;43.610;25.010;2023-03-01T06:38:26;101379.75;;;4.99;95.43
61682;BME280;47577;43.610;25.010;2023-03-01T06:40:52;101386.78;;;5.03;94.67
61682;BME280;47577;43.610;25.010;2023-03-01T06:43:19;101381.53;;;5.06;94.51
61682;BME280;47577;43.610;25.010;2023-03-01T06:45:44;101393.78;;;4.95;94.73
61682;BME280;47577;43.610;25.010;2023-03-01T06:48:10;101388.47;;;4.89;95.11
61682;BME280;47577;43.610;25.010;2023-03-01T06:50:36;101392.03;;;4.94;94.86
61682;BME280;47577;43.610;25.010;2023-03-01T06:53:03;101399.00;;;4.90;95.03
61682;BME280;47577;43.610;25.010;2023-03-01T06:55:29;101399.91;;;4.89;96.09
61682;BME280;47577;43.610;25.010;2023-03-01T06:57:57;101401.72;;;5.03;95.41
61682;BME280;47577;43.610;25.010;2023-03-01T07:00:23;101399.09;;;5.04;94.48
61682;BME280;47577;43.610;25.010;2023-03-01T07:02:49;101403.50;;;5.04;95.19
61682;BME280;47577;43.610;25.010;2023-03-01T07:05:15;101395.53;;;4.94;94.59
61682;BME280;47577;43.610;25.010;2023-03-01T07:07:40;101394.66;;;4.97;95.00
61682;BME280;47577;43.610;25.010;2023-03-01T07:10:06;101395.59;;;5.04;95.12
61682;BME280;47577;43.610;25.010;2023-03-01T07:12:32;101405.25;;;5.05;94.93
61682;BME280;47577;43.610;25.010;2023-03-01T07:14:57;101399.97;;;5.06;94.99
61682;BME280;47577;43.610;25.010;2023-03-01T07:17:23;101401.78;;;5.12;95.31
61682;BME280;47577;43.610;25.010;2023-03-01T07:19:48;101400.91;;;5.19;94.58
61682;BME280;47577;43.610;25.010;2023-03-01T07:22:14;101406.16;;;5.13;94.36
61682;BME280;47577;43.610;25.010;2023-03-01T07:24:40;101396.53;;;5.15;93.68
61682;BME280;47577;43.610;25.010;2023-03-01T07:27:06;101393.88;;;5.15;94.57
61682;BME280;47577;43.610;25.010;2023-03-01T07:29:31;101400.91;;;5.19;94.50
61682;BME280;47577;43.610;25.010;2023-03-01T07:31:57;101405.34;;;5.22;94.48
61682;BME280;47577;43.610;25.010;2023-03-01T07:34:23;101404.44;;;5.23;93.38
61682;BME280;47577;43.610;25.010;2023-03-01T07:36:48;101400.97;;;5.27;93.83
61682;BME280;47577;43.610;25.010;2023-03-01T07:39:14;101399.19;;;5.27;93.67
61682;BME280;47577;43.610;25.010;2023-03-01T07:41:40;101400.06;;;5.20;94.63
61682;BME280;47577;43.610;25.010;2023-03-01T07:44:05;101400.88;;;5.15;95.15
61682;BME280;47577;43.610;25.010;2023-03-01T07:46:31;101390.31;;;5.10;94.73
61682;BME280;47577;43.610;25.010;2023-03-01T07:48:57;101400.94;;;5.22;95.22
61682;BME280;47577;43.610;25.010;2023-03-01T07:51:23;101396.50;;;5.17;94.68
61682;BME280;47577;43.610;25.010;2023-03-01T07:53:49;101385.97;;;5.23;95.12
61682;BME280;47577;43.610;25.010;2023-03-01T07:56:15;101394.78;;;5.19;95.74
61682;BME280;47577;43.610;25.010;2023-03-01T07:58:43;101386.84;;;5.16;95.84
61682;BME280;47577;43.610;25.010;2023-03-01T08:01:10;101371.84;;;5.08;95.33
61682;BME280;47577;43.610;25.010;2023-03-01T08:03:36;101383.34;;;5.15;95.58
61682;BME280;47577;43.610;25.010;2023-03-01T08:06:02;101392.09;;;5.14;95.50
61682;BME280;47577;43.610;25.010;2023-03-01T08:08:28;101397.31;;;5.03;95.43
61682;BME280;47577;43.610;25.010;2023-03-01T08:10:56;101395.59;;;5.11;95.61
61682;BME280;47577;43.610;25.010;2023-03-01T08:13:21;101394.72;;;5.11;96.55
61682;BME280;47577;43.610;25.010;2023-03-01T08:15:50;101384.19;;;5.12;96.35
61682;BME280;47577;43.610;25.010;2023-03-01T08:18:16;101390.38;;;5.22;96.11
61682;BME280;47577;43.610;25.010;2023-03-01T08:20:42;101393.06;;;5.28;95.43
61682;BME280;47577;43.610;25.010;2023-03-01T08:23:07;101391.25;;;5.24;95.24
61682;BME280;47577;43.610;25.010;2023-03-01T08:25:33;101387.75;;;5.21;95.00
61682;BME280;47577;43.610;25.010;2023-03-01T08:27:58;101391.28;;;5.26;95.40
61682;BME280;47577;43.610;25.010;2023-03-01T08:30:23;101386.00;;;5.29;95.31
61682;BME280;47577;43.610;25.010;2023-03-01T08:32:49;101392.13;;;5.16;95.24
61682;BME280;47577;43.610;25.010;2023-03-01T08:35:15;101387.69;;;5.11;95.77
61682;BME280;47577;43.610;25.010;2023-03-01T08:37:40;101388.56;;;5.09;96.37
61682;BME280;47577;43.610;25.010;2023-03-01T08:40:06;101386.84;;;5.14;96.65
61682;BME280;47577;43.610;25.010;2023-03-01T08:42:32;101389.47;;;5.16;95.73
61682;BME280;47577;43.610;25.010;2023-03-01T08:44:57;101388.59;;;5.13;95.91
61682;BME280;47577;43.610;25.010;2023-03-01T08:47:23;101390.38;;;5.22;96.11
61682;BME280;47577;43.610;25.010;2023-03-01T08:49:49;101388.59;;;5.10;96.02
61682;BME280;47577;43.610;25.010;2023-03-01T08:52:15;101389.41;;;5.03;96.62
61682;BME280;47577;43.610;25.010;2023-03-01T08:54:40;101386.81;;;5.12;97.15
61682;BME280;47577;43.610;25.010;2023-03-01T08:57:06;101378.06;;;5.21;96.32
61682;BME280;47577;43.610;25.010;2023-03-01T08:59:31;101383.34;;;5.20;96.45
61682;BME280;47577;43.610;25.010;2023-03-01T09:02:02;101381.53;;;5.09;96.90
61682;BME280;47577;43.610;25.010;2023-03-01T09:04:28;101377.16;;;5.11;97.19
61682;BME280;47577;43.610;25.010;2023-03-01T09:06:53;101372.78;;;5.21;96.65
61682;BME280;47577;43.610;25.010;2023-03-01T09:09:19;101372.78;;;5.21;96.82
61682;BME280;47577;43.610;25.010;2023-03-01T09:11:44;101371.88;;;5.11;96.33
61682;BME280;47577;43.610;25.010;2023-03-01T09:14:11;101366.59;;;5.13;97.84
61682;BME280;47577;43.610;25.010;2023-03-01T09:16:37;101376.34;;;5.31;97.10
61682;BME280;47577;43.610;25.010;2023-03-01T09:19:02;101370.22;;;5.35;97.28
61682;BME280;47577;43.610;25.010;2023-03-01T09:21:28;101377.25;;;5.44;96.74
61682;BME280;47577;43.610;25.010;2023-03-01T09:23:55;101381.69;;;5.46;95.95
61682;BME280;47577;43.610;25.010;2023-03-01T09:26:21;101383.44;;;5.55;96.34
61682;BME280;47577;43.610;25.010;2023-03-01T09:28:47;101379.94;;;5.50;95.97
61682;BME280;47577;43.610;25.010;2023-03-01T09:31:13;101378.13;;;5.32;96.74
61682;BME280;47577;43.610;25.010;2023-03-01T09:33:40;101376.34;;;5.34;96.53
61682;BME280;47577;43.610;25.010;2023-03-01T09:36:07;101381.63;;;5.25;96.34
61682;BME280;47577;43.610;25.010;2023-03-01T09:38:33;101387.78;;;5.30;97.25
61682;BME280;47577;43.610;25.010;2023-03-01T09:40:59;101375.47;;;5.32;97.30
61682;BME280;47577;43.610;25.010;2023-03-01T09:45:58;101370.22;;;5.38;96.58
61682;BME280;47577;43.610;25.010;2023-03-01T09:48:25;101379.91;;;5.44;96.14
61682;BME280;47577;43.610;25.010;2023-03-01T09:50:52;101374.63;;;5.42;96.28
61682;BME280;47577;43.610;25.010;2023-03-01T09:53:31;101375.50;;;5.41;97.04
61682;BME280;47577;43.610;25.010;2023-03-01T09:56:04;101378.19;;;5.47;96.28
61682;BME280;47577;43.610;25.010;2023-03-01T09:58:36;101376.38;;;5.39;96.15
61682;BME280;47577;43.610;25.010;2023-03-01T10:01:38;101374.59;;;5.31;96.91
61682;BME280;47577;43.610;25.010;2023-03-01T10:06:44;101371.06;;;5.31;96.82
61682;BME280;47577;43.610;25.010;2023-03-01T10:09:12;101377.25;;;5.39;98.09
61682;BME280;47577;43.610;25.010;2023-03-01T10:11:41;101362.31;;;5.49;97.76
61682;BME280;47577;43.610;25.010;2023-03-01T10:16:39;101357.94;;;5.49;97.37
61682;BME280;47577;43.610;25.010;2023-03-01T10:19:08;101357.06;;;5.46;96.90
61682;BME280;47577;43.610;25.010;2023-03-01T10:21:37;101358.84;;;5.56;97.29
61682;BME280;47577;43.610;25.010;2023-03-01T10:24:13;101357.06;;;5.47;96.51
61682;BME280;47577;43.610;25.010;2023-03-01T10:26:54;101360.59;;;5.51;96.91
61682;BME280;47577;43.610;25.010;2023-03-01T10:29:23;101357.97;;;5.66;96.64
61682;BME280;47577;43.610;25.010;2023-03-01T10:31:50;101356.22;;;5.78;96.09
61682;BME280;47577;43.610;25.010;2023-03-01T10:36:42;101343.03;;;5.85;93.92
61682;BME280;47577;43.610;25.010;2023-03-01T10:39:12;101336.00;;;5.81;95.13
61682;BME280;47577;43.610;25.010;2023-03-01T10:42:01;101341.28;;;5.77;95.61
61682;BME280;47577;43.610;25.010;2023-03-01T10:47:08;101330.75;;;5.80;96.00
61682;BME280;47577;43.610;25.010;2023-03-01T10:49:37;101326.31;;;5.70;96.60
61682;BME280;47577;43.610;25.010;2023-03-01T10:52:11;101319.28;;;5.76;96.89
61682;BME280;47577;43.610;25.010;2023-03-01T10:54:41;101318.41;;;5.85;96.85
61682;BME280;47577;43.610;25.010;2023-03-01T10:57:26;101318.41;;;5.86;96.88
61682;BME280;47577;43.610;25.010;2023-03-01T11:00:00;101313.13;;;5.93;96.58
61682;BME280;47577;43.610;25.010;2023-03-01T11:02:29;101309.63;;;5.75;95.70
61682;BME280;47577;43.610;25.010;2023-03-01T11:07:23;101303.44;;;5.82;96.20
61682;BME280;47577;43.610;25.010;2023-03-01T11:09:49;101296.44;;;5.78;96.47
61682;BME280;47577;43.610;25.010;2023-03-01T11:12:14;101289.38;;;5.86;96.68
61682;BME280;47577;43.610;25.010;2023-03-01T11:14:51;101283.25;;;5.97;96.58
61682;BME280;47577;43.610;25.010;2023-03-01T11:17:21;101266.50;;;5.79;96.30
61682;BME280;47577;43.610;25.010;2023-03-01T11:20:05;101284.06;;;5.94;95.92
61682;BME280;47577;43.610;25.010;2023-03-01T11:22:32;101285.00;;;5.99;96.32
61682;BME280;47577;43.610;25.010;2023-03-01T11:24:59;101276.19;;;6.08;95.70
61682;BME280;47577;43.610;25.010;2023-03-01T11:27:26;101265.63;;;6.07;95.36
61682;BME280;47577;43.610;25.010;2023-03-01T11:29:55;101267.41;;;6.06;95.21
61682;BME280;47577;43.610;25.010;2023-03-01T11:32:23;101272.69;;;6.00;94.89
61682;BME280;47577;43.610;25.010;2023-03-01T11:34:57;101262.09;;;5.95;96.07
61682;BME280;47577;43.610;25.010;2023-03-01T11:37:32;101256.84;;;5.97;96.03
61682;BME280;47577;43.610;25.010;2023-03-01T11:42:38;101255.06;;;6.08;95.84
61682;BME280;47577;43.610;25.010;2023-03-01T11:45:10;101250.66;;;6.07;95.55
61682;BME280;47577;43.610;25.010;2023-03-01T11:50:24;101254.16;;;6.20;94.77
61682;BME280;47577;43.610;25.010;2023-03-01T12:08:24;101253.28;;;6.27;94.47
61682;BME280;47577;43.610;25.010;2023-03-01T12:11:00;101245.31;;;6.35;93.49
61682;BME280;47577;43.610;25.010;2023-03-01T12:16:05;101238.28;;;6.38;93.47
61682;BME280;47577;43.610;25.010;2023-03-01T12:28:42;101238.22;;;6.52;92.42
61682;BME280;47577;43.610;25.010;2023-03-01T12:31:29;101235.66;;;6.35;93.35
61682;BME280;47577;43.610;25.010;2023-03-01T12:49:37;101224.16;;;6.38;93.45
61682;BME280;47577;43.610;25.010;2023-03-01T12:52:14;101223.28;;;6.45;92.98
61682;BME280;47577;43.610;25.010;2023-03-01T12:54:41;101212.72;;;6.42;93.13
61682;BME280;47577;43.610;25.010;2023-03-01T12:57:18;101210.03;;;6.53;93.10
61682;BME280;47577;43.610;25.010;2023-03-01T12:59:50;101209.09;;;6.65;92.97
61682;BME280;47577;43.610;25.010;2023-03-01T13:02:24;101214.41;;;6.62;92.82
61682;BME280;47577;43.610;25.010;2023-03-01T13:07:36;101217.94;;;6.57;91.79
61682;BME280;47577;43.610;25.010;2023-03-01T13:12:51;101215.25;;;6.65;92.32
61682;BME280;47577;43.610;25.010;2023-03-01T13:17:49;101208.25;;;6.56;91.98
61682;BME280;47577;43.610;25.010;2023-03-01T13:20:15;101203.84;;;6.62;92.64
61682;BME280;47577;43.610;25.010;2023-03-01T13:22:42;101208.19;;;6.70;92.26
61682;BME280;47577;43.610;25.010;2023-03-01T13:25:17;101213.44;;;6.75;91.39
61682;BME280;47577;43.610;25.010;2023-03-01T13:27:44;101209.91;;;6.79;91.63
61682;BME280;47577;43.610;25.010;2023-03-01T13:32:54;101205.53;;;6.72;91.74
61682;BME280;47577;43.610;25.010;2023-03-01T13:35:42;101202.03;;;6.71;91.95
61682;BME280;47577;43.610;25.010;2023-03-01T13:43:31;101208.97;;;6.86;91.19
61682;BME280;47577;43.610;25.010;2023-03-01T13:45:58;101206.31;;;6.94;90.30
61682;BME280;47577;43.610;25.010;2023-03-01T13:48:25;101201.84;;;7.01;90.61
61682;BME280;47577;43.610;25.010;2023-03-01T13:50:53;101204.50;;;7.01;90.63
61682;BME280;47577;43.610;25.010;2023-03-01T13:53:22;101200.97;;;7.03;90.43
61682;BME280;47577;43.610;25.010;2023-03-01T13:55:49;101199.19;;;7.05;90.52
61682;BME280;47577;43.610;25.010;2023-03-01T14:00:41;101192.19;;;6.97;90.56
61682;BME280;47577;43.610;25.010;2023-03-01T14:03:15;101185.09;;;7.03;90.54
61682;BME280;47577;43.610;25.010;2023-03-01T14:05:41;101190.41;;;7.02;90.12
61682;BME280;47577;43.610;25.010;2023-03-01T14:08:19;101188.66;;;6.94;90.05
61682;BME280;47577;43.610;25.010;2023-03-01T14:10:48;101164.94;;;6.87;89.74
61682;BME280;47577;43.610;25.010;2023-03-01T14:15:47;101181.63;;;6.98;90.83
61682;BME280;47577;43.610;25.010;2023-03-01T14:18:19;101192.22;;;6.90;89.86
61682;BME280;47577;43.610;25.010;2023-03-01T14:20:47;101184.28;;;6.93;90.79
61682;BME280;47577;43.610;25.010;2023-03-01T14:23:24;101183.41;;;6.88;91.24
61682;BME280;47577;43.610;25.010;2023-03-01T14:25:55;101183.41;;;6.88;90.56